createdAt,value
2024-01-19T00:00:32.448Z,-5.42
2024-01-19T00:02:59.574Z,-5.45
2024-01-19T00:05:26.767Z,-5.34
2024-01-19T00:07:53.941Z,-5.44
2024-01-19T00:10:21.030Z,-5.40
2024-01-19T00:12:48.356Z,-5.47
2024-01-19T00:15:15.442Z,-5.44
2024-01-19T00:17:42.584Z,-5.53
2024-01-19T00:20:11.123Z,-5.41
2024-01-19T00:22:38.240Z,-5.45
2024-01-19T00:25:05.784Z,-5.49
2024-01-19T00:27:33.113Z,-5.48
2024-01-19T00:30:00.344Z,-5.40
2024-01-19T00:32:27.485Z,-5.47
2024-01-19T00:34:54.783Z,-5.52
2024-01-19T00:37:21.884Z,-5.57
2024-01-19T00:39:49.044Z,-5.66
2024-01-19T00:42:16.117Z,-5.51
2024-01-19T00:44:43.260Z,-5.46
2024-01-19T00:47:10.356Z,-5.39
2024-01-19T00:49:37.587Z,-5.42
2024-01-19T00:52:05.087Z,-5.28
2024-01-19T00:54:32.183Z,-5.33
2024-01-19T00:56:59.363Z,-5.41
2024-01-19T00:59:26.941Z,-5.34
2024-01-19T01:01:53.999Z,-5.39
2024-01-19T01:04:21.102Z,-5.34
2024-01-19T01:06:48.333Z,-5.23
2024-01-19T01:09:15.867Z,-5.25
2024-01-19T01:11:43.014Z,-5.27
2024-01-19T01:14:10.374Z,-5.29
2024-01-19T01:16:37.466Z,-5.27
2024-01-19T01:19:04.621Z,-5.21
2024-01-19T01:21:31.705Z,-5.23
2024-01-19T01:23:58.889Z,-5.25
2024-01-19T01:26:26.075Z,-5.31
2024-01-19T01:28:53.229Z,-5.39
2024-01-19T01:31:20.299Z,-5.40
2024-01-19T01:33:47.528Z,-5.52
2024-01-19T01:36:14.808Z,-5.37
2024-01-19T01:38:41.952Z,-5.35
2024-01-19T01:41:09.084Z,-5.40
2024-01-19T01:43:36.638Z,-5.34
2024-01-19T01:46:04.152Z,-5.57
2024-01-19T01:48:31.467Z,-5.64
2024-01-19T01:50:58.815Z,-5.51
2024-01-19T01:53:26.647Z,-5.44
2024-01-19T01:55:55.126Z,-5.49
2024-01-19T01:58:22.191Z,-5.32
2024-01-19T02:00:49.442Z,-5.23
2024-01-19T02:03:16.680Z,-5.15
2024-01-19T02:05:44.138Z,-5.22
2024-01-19T02:08:11.418Z,-5.17
2024-01-19T02:10:38.613Z,-5.26
2024-01-19T02:13:05.782Z,-5.22
2024-01-19T02:15:35.427Z,-5.21
2024-01-19T02:18:02.720Z,-5.28
2024-01-19T02:20:29.931Z,-5.22
2024-01-19T02:22:57.765Z,-5.34
2024-01-19T02:25:24.917Z,-5.30
2024-01-19T02:27:52.244Z,-5.39
2024-01-19T02:30:19.572Z,-5.46
2024-01-19T02:32:46.687Z,-5.38
2024-01-19T02:35:13.991Z,-5.49
2024-01-19T02:37:41.086Z,-5.58
2024-01-19T02:40:08.961Z,-5.55
2024-01-19T02:42:36.061Z,-5.57
2024-01-19T02:45:03.261Z,-5.55
2024-01-19T02:47:31.775Z,-5.62
2024-01-19T02:50:00.256Z,-5.76
2024-01-19T02:52:27.413Z,-5.58
2024-01-19T02:54:54.649Z,-5.62
2024-01-19T02:57:21.718Z,-5.66
2024-01-19T02:59:48.905Z,-5.62
2024-01-19T03:02:16.345Z,-5.60
2024-01-19T03:04:43.460Z,-5.65
2024-01-19T03:07:10.559Z,-5.69
2024-01-19T03:09:37.629Z,-5.72
2024-01-19T03:12:07.060Z,-5.71
2024-01-19T03:14:35.756Z,-5.76
2024-01-19T03:17:03.811Z,-5.73
2024-01-19T03:19:33.093Z,-5.73
2024-01-19T03:22:00.231Z,-5.78
2024-01-19T03:24:27.364Z,-5.90
2024-01-19T03:26:54.577Z,-5.77
2024-01-19T03:29:24.078Z,-5.84
2024-01-19T03:31:51.265Z,-5.78
2024-01-19T03:34:19.014Z,-5.74
2024-01-19T03:36:46.083Z,-5.62
2024-01-19T03:39:13.820Z,-5.64
2024-01-19T03:41:40.971Z,-5.57
2024-01-19T03:44:08.053Z,-5.57
2024-01-19T03:46:35.123Z,-5.55
2024-01-19T03:49:07.049Z,-5.59
2024-01-19T03:51:34.149Z,-5.63
2024-01-19T03:54:01.251Z,-5.64
2024-01-19T03:56:28.356Z,-5.59
2024-01-19T03:58:55.660Z,-5.61
2024-01-19T04:01:22.748Z,-5.70
2024-01-19T04:03:50.012Z,-5.66
2024-01-19T04:06:17.451Z,-5.65
2024-01-19T04:08:44.600Z,-5.72
2024-01-19T04:11:11.735Z,-5.75
2024-01-19T04:13:39.091Z,-5.76
2024-01-19T04:16:06.785Z,-5.89
2024-01-19T04:18:33.910Z,-5.84
2024-01-19T04:21:01.000Z,-5.74
2024-01-19T04:23:28.093Z,-5.66
2024-01-19T04:25:55.150Z,-5.71
2024-01-19T04:28:22.191Z,-5.73
2024-01-19T04:30:49.282Z,-5.74
2024-01-19T04:33:16.434Z,-5.72
2024-01-19T04:35:43.651Z,-5.72
2024-01-19T04:38:10.785Z,-5.82
2024-01-19T04:40:37.850Z,-5.78
2024-01-19T04:43:04.940Z,-5.94
2024-01-19T04:45:32.376Z,-5.74
2024-01-19T04:47:59.638Z,-5.76
2024-01-19T04:50:26.716Z,-5.79
2024-01-19T04:52:53.824Z,-5.85
2024-01-19T04:55:20.864Z,-5.79
2024-01-19T04:57:48.002Z,-5.78
2024-01-19T05:00:16.128Z,-5.80
2024-01-19T05:02:44.454Z,-5.84
2024-01-19T05:05:11.586Z,-5.89
2024-01-19T05:07:38.704Z,-5.93
2024-01-19T05:10:07.132Z,-5.86
2024-01-19T05:12:34.876Z,-5.73
2024-01-19T05:15:02.346Z,-5.67
2024-01-19T05:17:29.648Z,-5.65
2024-01-19T05:19:56.938Z,-5.72
2024-01-19T05:22:24.033Z,-5.79
2024-01-19T05:24:51.150Z,-5.85
2024-01-19T05:27:18.352Z,-5.94
2024-01-19T05:29:45.473Z,-5.90
2024-01-19T05:32:12.635Z,-5.88
2024-01-19T05:34:39.773Z,-5.85
2024-01-19T05:37:06.940Z,-5.86
2024-01-19T05:39:34.054Z,-5.85
2024-01-19T05:42:01.154Z,-5.74
2024-01-19T05:44:28.239Z,-5.78
2024-01-19T05:46:55.334Z,-5.72
2024-01-19T05:49:22.407Z,-5.77
2024-01-19T05:51:49.526Z,-5.75
2024-01-19T05:54:16.652Z,-5.81
2024-01-19T05:56:43.748Z,-5.81
2024-01-19T05:59:10.883Z,-5.66
2024-01-19T06:01:38.054Z,-5.66
2024-01-19T06:04:05.259Z,-5.56
2024-01-19T06:06:32.397Z,-5.58
2024-01-19T06:08:59.604Z,-5.70
2024-01-19T06:11:26.861Z,-5.49
2024-01-19T06:13:53.988Z,-5.55
2024-01-19T06:16:21.415Z,-5.66
2024-01-19T06:18:49.224Z,-5.71
2024-01-19T06:21:16.588Z,-5.59
2024-01-19T06:23:43.691Z,-5.51
2024-01-19T06:26:12.019Z,-5.51
2024-01-19T06:28:39.867Z,-5.59
2024-01-19T06:31:08.805Z,-5.53
2024-01-19T06:33:38.636Z,-5.49
2024-01-19T06:36:10.658Z,-5.51
2024-01-19T06:38:37.786Z,-5.60
2024-01-19T06:41:06.367Z,-5.63
2024-01-19T06:43:33.458Z,-5.74
2024-01-19T06:46:00.688Z,-5.83
2024-01-19T06:48:27.886Z,-5.69
2024-01-19T06:50:55.513Z,-5.65
2024-01-19T06:53:22.633Z,-5.60
2024-01-19T06:55:50.201Z,-5.59
2024-01-19T06:58:17.286Z,-5.67
2024-01-19T07:00:44.430Z,-5.62
2024-01-19T07:03:11.748Z,-5.55
2024-01-19T07:05:39.797Z,-5.49
2024-01-19T07:08:07.117Z,-5.48
2024-01-19T07:10:34.559Z,-5.46
2024-01-19T07:13:01.727Z,-5.42
2024-01-19T07:15:29.522Z,-5.44
2024-01-19T07:17:56.863Z,-5.47
2024-01-19T07:20:24.364Z,-5.44
2024-01-19T07:22:58.020Z,-5.48
2024-01-19T07:25:25.750Z,-5.38
2024-01-19T07:27:52.930Z,-5.34
2024-01-19T07:30:20.181Z,-5.35
2024-01-19T07:32:56.843Z,-5.39
2024-01-19T07:35:32.313Z,-5.43
2024-01-19T07:37:59.708Z,-5.41
2024-01-19T07:40:27.815Z,-5.33
2024-01-19T07:42:54.983Z,-5.39
2024-01-19T07:45:22.037Z,-5.34
2024-01-19T07:47:49.220Z,-5.30
2024-01-19T07:50:17.264Z,-5.34
2024-01-19T07:52:44.489Z,-5.23
2024-01-19T07:55:11.592Z,-5.17
2024-01-19T07:57:38.679Z,-5.14
2024-01-19T08:00:07.347Z,-5.10
2024-01-19T08:02:34.485Z,-5.05
2024-01-19T08:05:01.670Z,-4.98
2024-01-19T08:07:29.096Z,-4.88
2024-01-19T08:09:56.213Z,-4.87
2024-01-19T08:12:23.331Z,-4.77
2024-01-19T08:14:51.575Z,-4.61
2024-01-19T08:17:19.138Z,-4.08
2024-01-19T08:19:46.913Z,-3.52
2024-01-19T08:22:13.959Z,-3.31
2024-01-19T08:24:40.974Z,-3.23
2024-01-19T08:27:08.498Z,-3.48
2024-01-19T08:29:35.732Z,-3.57
2024-01-19T08:32:02.899Z,-3.74
2024-01-19T08:34:30.425Z,-3.80
2024-01-19T08:36:57.711Z,-3.84
2024-01-19T08:39:24.747Z,-3.87
2024-01-19T08:41:51.852Z,-3.94
2024-01-19T08:44:19.295Z,-4.00
2024-01-19T08:46:47.223Z,-3.88
2024-01-19T08:49:14.601Z,-3.77
2024-01-19T08:51:43.727Z,-3.66
2024-01-19T08:54:11.288Z,-3.63
2024-01-19T08:56:43.043Z,-3.71
2024-01-19T08:59:17.097Z,-3.67
2024-01-19T09:01:44.231Z,-3.73
2024-01-19T09:04:11.440Z,-3.84
2024-01-19T09:06:40.208Z,-3.66
2024-01-19T09:09:09.764Z,-3.66
2024-01-19T09:11:36.918Z,-3.66
2024-01-19T09:14:04.116Z,-3.60
2024-01-19T09:16:31.197Z,-3.54
2024-01-19T09:18:59.313Z,-3.40
2024-01-19T09:21:26.760Z,-3.40
2024-01-19T09:23:54.615Z,-3.35
2024-01-19T09:26:22.697Z,-3.36
2024-01-19T09:28:50.444Z,-3.24
2024-01-19T09:31:17.494Z,-3.26
2024-01-19T09:33:46.298Z,-3.29
2024-01-19T09:36:14.149Z,-3.24
2024-01-19T09:38:41.930Z,-3.10
2024-01-19T09:41:40.789Z,-2.92
2024-01-19T09:44:09.843Z,-2.79
2024-01-19T09:46:52.538Z,-2.58
2024-01-19T09:49:31.882Z,-2.31
2024-01-19T09:52:25.681Z,-2.44
2024-01-19T09:54:52.984Z,-2.49
2024-01-19T09:57:20.564Z,-2.85
2024-01-19T09:59:47.759Z,-2.86
2024-01-19T10:02:18.842Z,-2.65
2024-01-19T10:04:46.241Z,-2.57
2024-01-19T10:07:14.399Z,-2.52
2024-01-19T10:09:42.305Z,-2.53
2024-01-19T10:12:11.072Z,-2.49
2024-01-19T10:14:38.219Z,-2.55
2024-01-19T10:17:05.677Z,-2.57
2024-01-19T10:19:34.970Z,-2.62
2024-01-19T10:22:28.298Z,-2.74
2024-01-19T10:25:15.872Z,-2.55
2024-01-19T10:27:45.881Z,-2.74
2024-01-19T10:30:13.474Z,-2.34
2024-01-19T10:32:43.262Z,-2.19
2024-01-19T10:35:18.703Z,-2.25
2024-01-19T10:37:47.426Z,-2.43
2024-01-19T10:40:24.593Z,-2.32
2024-01-19T10:42:57.935Z,-1.98
2024-01-19T10:45:29.815Z,-2.11
2024-01-19T10:47:59.805Z,-2.28
2024-01-19T10:50:29.288Z,-2.40
2024-01-19T10:52:58.334Z,-2.39
2024-01-19T10:55:29.142Z,-2.55
2024-01-19T10:58:07.068Z,-2.40
2024-01-19T11:00:37.218Z,-2.53
2024-01-19T11:03:05.211Z,-2.62
2024-01-19T11:05:33.711Z,-2.53
2024-01-19T11:08:03.349Z,-2.53
2024-01-19T11:10:32.453Z,-2.40
2024-01-19T11:13:01.355Z,-2.38
2024-01-19T11:15:41.973Z,-2.38
2024-01-19T11:18:09.347Z,-2.45
2024-01-19T11:20:36.613Z,-2.48
2024-01-19T11:23:05.052Z,-2.47
2024-01-19T11:25:43.183Z,-2.41
2024-01-19T11:28:17.693Z,-2.44
2024-01-19T11:31:02.069Z,-2.45
2024-01-19T11:33:33.152Z,-2.38
2024-01-19T11:36:00.712Z,-2.56
2024-01-19T11:38:39.853Z,-2.56
2024-01-19T11:41:06.918Z,-2.62
2024-01-19T11:43:41.801Z,-2.63
2024-01-19T11:46:10.896Z,-2.54
2024-01-19T11:48:46.072Z,-2.65
2024-01-19T11:51:33.872Z,-2.61
2024-01-19T11:54:03.559Z,-2.62
2024-01-19T11:56:31.386Z,-2.50
2024-01-19T11:58:59.817Z,-2.37
2024-01-19T12:01:26.878Z,-2.28
2024-01-19T12:03:56.087Z,-2.36
2024-01-19T12:06:23.966Z,-2.34
2024-01-19T12:09:02.423Z,-2.54
2024-01-19T12:11:29.674Z,-2.52
2024-01-19T12:14:05.731Z,-2.52
2024-01-19T12:16:34.192Z,-2.53
2024-01-19T12:19:01.629Z,-2.66
2024-01-19T12:21:29.114Z,-2.71
2024-01-19T12:23:58.449Z,-2.74
2024-01-19T12:26:26.342Z,-2.63
2024-01-19T12:28:54.235Z,-2.73
2024-01-19T12:31:23.601Z,-2.78
2024-01-19T12:33:50.991Z,-2.76
2024-01-19T12:36:23.763Z,-2.75
2024-01-19T12:39:06.961Z,-2.74
2024-01-19T12:41:34.844Z,-2.69
2024-01-19T12:44:02.118Z,-2.73
2024-01-19T12:46:29.357Z,-2.74
2024-01-19T12:49:06.076Z,-2.71
2024-01-19T12:51:33.582Z,-2.60
2024-01-19T12:54:01.501Z,-2.71
2024-01-19T12:56:30.318Z,-2.72
2024-01-19T12:59:11.695Z,-2.70
2024-01-19T13:01:46.777Z,-2.65
2024-01-19T13:04:16.781Z,-2.70
2024-01-19T13:06:45.335Z,-2.58
2024-01-19T13:09:17.574Z,-2.66
2024-01-19T13:11:44.694Z,-2.65
2024-01-19T13:14:13.433Z,-2.62
2024-01-19T13:16:57.719Z,-2.72
2024-01-19T13:19:25.295Z,-2.60
2024-01-19T13:21:54.703Z,-2.48
2024-01-19T13:24:25.383Z,-2.38
2024-01-19T13:27:03.012Z,-2.35
2024-01-19T13:29:30.935Z,-2.43
2024-01-19T13:32:01.168Z,-2.50
2024-01-19T13:34:29.671Z,-2.50
2024-01-19T13:36:58.518Z,-2.57
2024-01-19T13:39:26.020Z,-2.52
2024-01-19T13:41:53.369Z,-2.52
2024-01-19T13:44:20.480Z,-2.58
2024-01-19T13:46:47.633Z,-2.51
2024-01-19T13:49:14.810Z,-2.53
2024-01-19T13:51:42.568Z,-2.58
2024-01-19T13:54:09.560Z,-2.61
2024-01-19T13:56:36.518Z,-2.63
2024-01-19T13:59:03.770Z,-2.70
2024-01-19T14:01:30.976Z,-2.79
2024-01-19T14:03:58.130Z,-2.67
2024-01-19T14:06:25.377Z,-2.66
2024-01-19T14:08:53.709Z,-2.66
2024-01-19T14:11:21.908Z,-2.72
2024-01-19T14:13:49.867Z,-2.67
2024-01-19T14:16:17.146Z,-2.63
2024-01-19T14:18:44.369Z,-2.57
2024-01-19T14:21:11.726Z,-2.58
2024-01-19T14:23:38.949Z,-2.59
2024-01-19T14:26:06.093Z,-2.58
2024-01-19T14:28:33.819Z,-2.76
2024-01-19T14:31:01.121Z,-2.75
2024-01-19T14:33:28.314Z,-2.74
2024-01-19T14:35:55.512Z,-2.69
2024-01-19T14:38:22.700Z,-2.73
2024-01-19T14:40:49.866Z,-2.79
2024-01-19T14:43:16.966Z,-2.77
2024-01-19T14:45:45.367Z,-2.90
2024-01-19T14:48:13.023Z,-3.06
2024-01-19T14:50:42.113Z,-3.13
2024-01-19T14:53:09.637Z,-3.14
2024-01-19T14:55:37.118Z,-3.27
2024-01-19T14:58:04.353Z,-3.19
2024-01-19T15:00:33.720Z,-3.28
2024-01-19T15:03:00.828Z,-3.34
2024-01-19T15:05:27.892Z,-3.31
2024-01-19T15:07:55.276Z,-3.33
2024-01-19T15:10:22.401Z,-3.32
2024-01-19T15:12:49.521Z,-3.39
2024-01-19T15:15:16.702Z,-3.38
2024-01-19T15:17:43.841Z,-3.44
2024-01-19T15:20:11.616Z,-3.40
2024-01-19T15:22:38.778Z,-3.42
2024-01-19T15:25:10.022Z,-3.44
2024-01-19T15:27:38.920Z,-3.45
2024-01-19T15:30:07.322Z,-3.46
2024-01-19T15:32:36.401Z,-3.47
2024-01-19T15:35:06.967Z,-3.53
2024-01-19T15:37:34.980Z,-3.56
2024-01-19T15:40:02.237Z,-3.64
2024-01-19T15:42:30.852Z,-3.66
2024-01-19T15:44:58.105Z,-3.69
2024-01-19T15:47:25.904Z,-3.71
2024-01-19T15:49:53.075Z,-3.69
2024-01-19T15:52:21.354Z,-3.65
2024-01-19T15:54:50.390Z,-3.67
2024-01-19T15:57:17.500Z,-3.74
2024-01-19T15:59:45.963Z,-3.69
2024-01-19T16:02:13.201Z,-3.72
2024-01-19T16:04:40.434Z,-3.80
2024-01-19T16:07:07.520Z,-3.70
2024-01-19T16:09:34.588Z,-3.70
2024-01-19T16:12:01.678Z,-3.64
2024-01-19T16:14:28.748Z,-3.66
2024-01-19T16:16:55.883Z,-3.62
2024-01-19T16:19:22.958Z,-3.61
2024-01-19T16:21:56.498Z,-3.62
2024-01-19T16:24:24.664Z,-3.58
2024-01-19T16:26:51.745Z,-3.56
2024-01-19T16:29:21.558Z,-3.57
2024-01-19T16:31:48.782Z,-3.57
2024-01-19T16:34:15.901Z,-3.56
2024-01-19T16:36:43.170Z,-3.63
2024-01-19T16:39:10.343Z,-3.61
2024-01-19T16:41:44.976Z,-3.67
2024-01-19T16:44:12.672Z,-3.58
2024-01-19T16:46:40.182Z,-3.55
2024-01-19T16:49:07.643Z,-3.65
2024-01-19T16:51:35.415Z,-3.62
2024-01-19T16:54:02.479Z,-3.65
2024-01-19T16:56:32.604Z,-3.66
2024-01-19T16:59:01.280Z,-3.72
2024-01-19T17:01:28.903Z,-3.78
2024-01-19T17:03:56.169Z,-3.77
2024-01-19T17:06:24.817Z,-3.69
2024-01-19T17:08:51.986Z,-3.72
2024-01-19T17:11:19.190Z,-3.68
2024-01-19T17:13:46.325Z,-3.78
2024-01-19T17:16:16.923Z,-3.70
2024-01-19T17:18:48.337Z,-3.71
2024-01-19T17:21:15.627Z,-3.74
2024-01-19T17:23:43.058Z,-3.71
2024-01-19T17:26:10.166Z,-3.71
2024-01-19T17:28:37.871Z,-3.80
2024-01-19T17:31:05.373Z,-3.72
2024-01-19T17:33:33.527Z,-3.72
2024-01-19T17:36:00.804Z,-3.66
2024-01-19T17:38:28.777Z,-3.70
2024-01-19T17:40:56.227Z,-3.73
2024-01-19T17:43:24.850Z,-3.68
2024-01-19T17:45:51.964Z,-3.68
2024-01-19T17:48:23.140Z,-3.61
2024-01-19T17:50:50.991Z,-3.58
2024-01-19T17:53:18.007Z,-3.57
2024-01-19T17:55:45.116Z,-3.57
2024-01-19T17:58:12.245Z,-3.57
2024-01-19T18:00:39.322Z,-3.63
2024-01-19T18:03:08.925Z,-3.61
2024-01-19T18:05:36.165Z,-3.58
2024-01-19T18:08:03.590Z,-3.58
2024-01-19T18:10:30.899Z,-3.59
2024-01-19T18:12:58.109Z,-3.52
2024-01-19T18:15:25.638Z,-3.52
2024-01-19T18:17:52.830Z,-3.51
2024-01-19T18:20:20.457Z,-3.49
2024-01-19T18:22:47.681Z,-3.45
2024-01-19T18:25:14.904Z,-3.44
2024-01-19T18:27:41.978Z,-3.46
2024-01-19T18:30:09.679Z,-3.44
2024-01-19T18:32:37.012Z,-3.42
2024-01-19T18:35:04.510Z,-3.44
2024-01-19T18:37:32.511Z,-3.43
2024-01-19T18:40:02.890Z,-3.42
2024-01-19T18:42:30.172Z,-3.47
2024-01-19T18:44:57.285Z,-3.53
2024-01-19T18:47:25.661Z,-3.63
2024-01-19T18:49:53.674Z,-3.70
2024-01-19T18:52:23.038Z,-3.68
2024-01-19T18:54:50.538Z,-3.75
2024-01-19T18:57:17.689Z,-3.85
2024-01-19T18:59:44.874Z,-3.77
2024-01-19T19:02:13.621Z,-3.77
2024-01-19T19:04:41.328Z,-3.77
2024-01-19T19:07:08.701Z,-3.75
2024-01-19T19:09:36.297Z,-3.77
2024-01-19T19:12:03.654Z,-3.74
2024-01-19T19:14:31.274Z,-3.80
2024-01-19T19:16:58.523Z,-3.87
2024-01-19T19:19:29.381Z,-3.89
2024-01-19T19:21:58.444Z,-3.93
2024-01-19T19:24:26.214Z,-3.99
2024-01-19T19:26:53.350Z,-3.89
2024-01-19T19:29:20.885Z,-4.04
2024-01-19T19:31:48.179Z,-4.11
2024-01-19T19:34:16.749Z,-4.06
2024-01-19T19:36:45.067Z,-4.01
2024-01-19T19:39:12.217Z,-4.07
2024-01-19T19:41:46.334Z,-4.08
2024-01-19T19:44:14.012Z,-3.98
2024-01-19T19:46:41.105Z,-4.08
2024-01-19T19:49:08.404Z,-4.06
2024-01-19T19:51:37.514Z,-4.01
2024-01-19T19:54:05.010Z,-4.00
2024-01-19T19:56:32.317Z,-4.09
2024-01-19T19:58:59.669Z,-4.04
2024-01-19T20:01:27.440Z,-4.02
2024-01-19T20:03:55.301Z,-4.08
2024-01-19T20:06:24.373Z,-4.11
2024-01-19T20:08:52.285Z,-4.11
2024-01-19T20:11:20.333Z,-4.07
2024-01-19T20:13:48.195Z,-4.18
2024-01-19T20:16:15.350Z,-4.22
2024-01-19T20:18:42.717Z,-4.25
2024-01-19T20:21:11.454Z,-4.26
2024-01-19T20:23:38.528Z,-4.32
2024-01-19T20:26:11.517Z,-4.36
2024-01-19T20:28:39.520Z,-4.38
2024-01-19T20:31:06.897Z,-4.42
2024-01-19T20:33:34.430Z,-4.45
2024-01-19T20:36:03.699Z,-4.42
2024-01-19T20:38:31.253Z,-4.42
2024-01-19T20:40:58.600Z,-4.38
2024-01-19T20:43:25.677Z,-4.42
2024-01-19T20:45:52.765Z,-4.39
2024-01-19T20:48:20.457Z,-4.33
2024-01-19T20:50:47.656Z,-4.29
2024-01-19T20:53:15.007Z,-4.24
2024-01-19T20:55:42.426Z,-4.31
2024-01-19T20:58:10.917Z,-4.33
2024-01-19T21:00:38.485Z,-4.32
2024-01-19T21:03:05.793Z,-4.26
2024-01-19T21:05:33.330Z,-4.36
2024-01-19T21:08:00.881Z,-4.33
2024-01-19T21:10:29.670Z,-4.28
2024-01-19T21:12:57.559Z,-4.20
2024-01-19T21:15:27.249Z,-4.10
2024-01-19T21:17:55.443Z,-4.18
2024-01-19T21:20:24.268Z,-4.22
2024-01-19T21:22:51.839Z,-4.25
2024-01-19T21:25:21.415Z,-4.21
2024-01-19T21:27:48.616Z,-4.20
2024-01-19T21:30:15.861Z,-4.20
2024-01-19T21:32:43.004Z,-4.23
2024-01-19T21:35:10.455Z,-4.06
2024-01-19T21:37:37.648Z,-4.15
2024-01-19T21:40:05.618Z,-4.18
2024-01-19T21:42:33.095Z,-4.26
2024-01-19T21:45:00.876Z,-4.14
2024-01-19T21:47:28.337Z,-4.08
2024-01-19T21:49:55.560Z,-4.05
2024-01-19T21:52:23.311Z,-4.14
2024-01-19T21:54:50.711Z,-4.24
2024-01-19T21:57:18.642Z,-4.22
2024-01-19T21:59:46.422Z,-4.20
2024-01-19T22:02:13.685Z,-4.19
2024-01-19T22:04:41.696Z,-4.16
2024-01-19T22:07:09.211Z,-4.20
2024-01-19T22:09:38.075Z,-4.14
2024-01-19T22:12:08.095Z,-4.24
2024-01-19T22:14:35.637Z,-4.28
2024-01-19T22:17:02.832Z,-4.30
2024-01-19T22:19:30.008Z,-4.29
2024-01-19T22:21:57.534Z,-4.17
2024-01-19T22:24:24.609Z,-4.21
2024-01-19T22:26:51.715Z,-4.20
2024-01-19T22:29:19.122Z,-4.30
2024-01-19T22:31:46.943Z,-4.38
2024-01-19T22:34:16.225Z,-4.38
2024-01-19T22:36:46.063Z,-4.41
2024-01-19T22:39:13.823Z,-4.43
2024-01-19T22:41:42.937Z,-4.38
2024-01-19T22:44:10.426Z,-4.34
2024-01-19T22:46:37.609Z,-4.39
2024-01-19T22:49:04.806Z,-4.38
2024-01-19T22:51:32.585Z,-4.38
2024-01-19T22:54:00.189Z,-4.27
2024-01-19T22:56:27.399Z,-4.28
2024-01-19T22:58:55.890Z,-4.37
2024-01-19T23:01:23.048Z,-4.37
2024-01-19T23:03:50.358Z,-4.40
2024-01-19T23:06:17.685Z,-4.45
2024-01-19T23:08:45.026Z,-4.45
2024-01-19T23:11:12.197Z,-4.51
2024-01-19T23:13:39.572Z,-4.43
2024-01-19T23:16:08.448Z,-4.46
2024-01-19T23:18:35.735Z,-4.38
2024-01-19T23:21:03.366Z,-4.43
2024-01-19T23:23:32.182Z,-4.40
2024-01-19T23:26:00.541Z,-4.32
2024-01-19T23:28:27.944Z,-4.27
2024-01-19T23:30:55.339Z,-4.32
2024-01-19T23:33:23.059Z,-4.37
2024-01-19T23:35:50.557Z,-4.41
2024-01-19T23:38:19.161Z,-4.35
2024-01-19T23:40:46.407Z,-4.29
2024-01-19T23:43:13.773Z,-4.30
2024-01-19T23:45:40.947Z,-4.35
2024-01-19T23:48:08.176Z,-4.32
2024-01-19T23:50:35.635Z,-4.19
2024-01-19T23:53:03.088Z,-4.33
2024-01-19T23:55:30.247Z,-4.36
2024-01-19T23:57:57.792Z,-4.40
